createdAt,value
2019-02-15T00:00:18.088Z,16.6
2019-02-15T00:01:08.131Z,16.6
2019-02-15T00:01:58.408Z,16.6
2019-02-15T00:02:47.238Z,16.7
2019-02-15T00:03:38.860Z,16.8
2019-02-15T00:04:28.697Z,16.8
2019-02-15T00:05:18.148Z,16.9
2019-02-15T00:06:08.748Z,16.9
2019-02-15T00:06:58.525Z,16.9
2019-02-15T00:07:48.942Z,16.9
2019-02-15T00:08:38.598Z,16.9
2019-02-15T00:12:48.717Z,17.1
2019-02-15T00:13:39.544Z,17.1
2019-02-15T00:14:29.845Z,17.1
2019-02-15T00:16:09.187Z,16.9
2019-02-15T00:16:59.240Z,16.9
2019-02-15T00:17:49.502Z,16.8
2019-02-15T00:18:39.792Z,16.8
2019-02-15T00:19:29.180Z,16.8
2019-02-15T00:20:18.630Z,16.8
2019-02-15T00:21:09.807Z,16.8
2019-02-15T00:21:59.527Z,16.9
2019-02-15T00:22:49.354Z,16.9
2019-02-15T00:23:39.044Z,16.8
2019-02-15T00:24:30.304Z,16.8
2019-02-15T00:25:19.471Z,16.8
2019-02-15T00:26:09.586Z,16.7
2019-02-15T00:26:59.886Z,16.6
2019-02-15T00:27:49.089Z,16.6
2019-02-15T00:28:39.716Z,16.7
2019-02-15T00:29:30.082Z,16.7
2019-02-15T00:30:20.170Z,16.8
2019-02-15T00:31:09.868Z,16.7
2019-02-15T00:32:00.528Z,16.7
2019-02-15T00:32:49.748Z,16.7
2019-02-15T00:33:39.751Z,16.8
2019-02-15T00:34:30.716Z,16.8
2019-02-15T00:35:20.507Z,16.8
2019-02-15T00:36:10.301Z,16.8
2019-02-15T00:36:59.843Z,16.8
2019-02-15T00:37:50.400Z,16.7
2019-02-15T00:38:40.653Z,16.7
2019-02-15T00:39:30.020Z,16.6
2019-02-15T00:40:19.735Z,16.5
2019-02-15T00:41:10.043Z,16.5
2019-02-15T00:42:01.013Z,16.4
2019-02-15T00:42:50.193Z,16.4
2019-02-15T00:43:40.212Z,16.4
2019-02-15T00:44:31.400Z,16.4
2019-02-15T00:45:20.848Z,16.4
2019-02-15T00:46:10.080Z,16.3
2019-02-15T00:47:01.777Z,16.4
2019-02-15T00:47:51.263Z,16.4
2019-02-15T00:48:40.292Z,16.4
2019-02-15T00:49:30.946Z,16.5
2019-02-15T00:50:21.487Z,16.5
2019-02-15T00:51:11.237Z,16.5
2019-02-15T00:52:01.091Z,16.6
2019-02-15T00:52:51.372Z,16.6
2019-02-15T00:53:41.994Z,16.6
2019-02-15T00:54:32.007Z,16.8
2019-02-15T00:55:22.929Z,16.8
2019-02-15T00:56:11.384Z,16.8
2019-02-15T00:57:01.681Z,16.9
2019-02-15T00:57:51.744Z,16.9
2019-02-15T00:58:42.295Z,16.9
2019-02-15T00:59:32.997Z,16.8
2019-02-15T01:00:21.840Z,16.7
2019-02-15T01:01:12.589Z,16.6
2019-02-15T01:02:01.217Z,16.6
2019-02-15T01:02:52.852Z,16.6
2019-02-15T01:03:42.211Z,16.7
2019-02-15T01:04:31.929Z,16.8
2019-02-15T01:05:22.119Z,16.8
2019-02-15T01:06:11.475Z,16.8
2019-02-15T01:07:02.859Z,16.8
2019-02-15T01:07:53.284Z,16.7
2019-02-15T01:08:43.233Z,16.7
2019-02-15T01:09:32.069Z,16.6
2019-02-15T01:10:23.156Z,16.6
2019-02-15T01:11:12.702Z,16.6
2019-02-15T01:12:02.948Z,16.6
2019-02-15T01:12:52.477Z,16.6
2019-02-15T01:13:42.486Z,16.6
2019-02-15T01:14:32.567Z,16.6
2019-02-15T01:15:23.701Z,16.6
2019-02-15T01:16:13.044Z,16.6
2019-02-15T01:17:03.308Z,16.7
2019-02-15T01:17:53.406Z,16.8
2019-02-15T01:18:43.752Z,16.8
2019-02-15T01:19:32.948Z,16.8
2019-02-15T01:20:23.296Z,16.9
2019-02-15T01:21:14.103Z,16.9
2019-02-15T01:22:03.211Z,16.9
2019-02-15T01:22:52.933Z,16.9
2019-02-15T01:23:44.290Z,16.9
2019-02-15T01:24:33.235Z,16.9
2019-02-15T01:25:23.883Z,16.9
2019-02-15T01:26:13.380Z,17.1
2019-02-15T01:27:03.116Z,17.1
2019-02-15T01:27:54.260Z,17.1
2019-02-15T01:28:44.432Z,16.9
2019-02-15T01:29:34.128Z,16.9
2019-02-15T01:30:24.229Z,16.8
2019-02-15T01:31:14.252Z,16.8
2019-02-15T01:32:04.322Z,16.8
2019-02-15T01:32:54.647Z,16.8
2019-02-15T01:33:43.827Z,16.8
2019-02-15T01:34:34.029Z,16.8
2019-02-15T01:35:23.487Z,16.8
2019-02-15T01:36:14.637Z,16.8
2019-02-15T01:37:04.388Z,16.8
2019-02-15T01:37:55.539Z,16.8
2019-02-15T01:38:45.137Z,16.8
2019-02-15T01:39:34.552Z,16.8
2019-02-15T01:40:24.882Z,16.8
2019-02-15T01:41:14.894Z,16.7
2019-02-15T01:42:04.981Z,16.6
2019-02-15T01:42:54.740Z,16.6
2019-02-15T01:43:49.991Z,16.6
2019-02-15T01:44:35.216Z,16.7
2019-02-15T01:45:24.791Z,16.7
2019-02-15T01:46:15.369Z,16.7
2019-02-15T01:47:06.182Z,16.8
2019-02-15T01:47:55.136Z,16.8
2019-02-15T01:48:45.456Z,16.8
2019-02-15T01:49:35.100Z,16.8
2019-02-15T01:50:25.106Z,16.8
2019-02-15T01:51:15.459Z,16.8
2019-02-15T01:52:05.751Z,16.9
2019-02-15T01:52:55.811Z,16.9
2019-02-15T01:53:45.888Z,16.9
2019-02-15T01:56:15.298Z,17.1
2019-02-15T01:57:55.828Z,16.9
2019-02-15T01:58:46.791Z,16.9
2019-02-15T01:59:35.933Z,16.8
2019-02-15T02:00:26.030Z,16.8
2019-02-15T02:01:15.795Z,16.9
2019-02-15T02:02:06.646Z,16.9
2019-02-15T02:02:56.260Z,16.9
2019-02-15T02:03:46.291Z,16.9
2019-02-15T02:04:36.230Z,16.9
2019-02-15T02:05:26.078Z,16.9
2019-02-15T02:06:16.233Z,16.9
2019-02-15T02:07:06.425Z,16.9
2019-02-15T02:07:56.777Z,16.8
2019-02-15T02:08:47.689Z,16.8
2019-02-15T02:09:36.925Z,16.8
2019-02-15T02:10:26.445Z,16.8
2019-02-15T02:11:16.470Z,16.8
2019-02-15T02:12:06.637Z,16.8
2019-02-15T02:12:57.117Z,16.8
2019-02-15T02:13:56.537Z,16.8
2019-02-15T02:14:37.287Z,16.8
2019-02-15T02:15:27.327Z,16.8
2019-02-15T02:16:16.353Z,16.9
2019-02-15T02:17:08.209Z,16.9
2019-02-15T02:17:58.384Z,16.9
2019-02-15T02:18:46.779Z,16.9
2019-02-15T02:19:37.650Z,16.9
2019-02-15T02:20:27.904Z,16.9
2019-02-15T02:22:07.835Z,16.9
2019-02-15T02:22:58.174Z,16.9
2019-02-15T02:23:46.549Z,16.9
2019-02-15T02:24:37.987Z,16.9
2019-02-15T02:25:27.737Z,16.8
2019-02-15T02:26:18.376Z,16.7
2019-02-15T02:27:07.901Z,16.6
2019-02-15T02:27:58.143Z,16.6
2019-02-15T02:28:48.202Z,16.6
2019-02-15T02:29:38.846Z,16.6
2019-02-15T02:30:28.702Z,16.6
2019-02-15T02:31:17.728Z,16.6
2019-02-15T02:32:08.816Z,16.6
2019-02-15T02:32:58.551Z,16.6
2019-02-15T02:33:48.901Z,16.6
2019-02-15T02:34:37.389Z,16.6
2019-02-15T02:35:28.612Z,16.6
2019-02-15T02:36:17.718Z,16.7
2019-02-15T02:37:09.015Z,16.8
2019-02-15T02:37:58.995Z,16.9
2019-02-15T02:38:48.707Z,16.9
2019-02-15T02:39:39.070Z,16.9
2019-02-15T02:40:28.786Z,16.9
2019-02-15T02:41:19.506Z,16.9
2019-02-15T02:42:59.536Z,16.9
2019-02-15T02:43:59.112Z,16.8
2019-02-15T02:44:39.326Z,16.8
2019-02-15T02:45:29.490Z,16.8
2019-02-15T02:46:19.542Z,16.7
2019-02-15T02:47:09.801Z,16.8
2019-02-15T02:47:59.634Z,16.8
2019-02-15T02:48:49.993Z,16.8
2019-02-15T02:49:39.945Z,16.8
2019-02-15T02:50:29.347Z,16.8
2019-02-15T02:51:19.535Z,16.8
2019-02-15T02:52:10.116Z,16.8
2019-02-15T02:53:00.785Z,16.7
2019-02-15T02:53:50.540Z,16.7
2019-02-15T02:54:40.727Z,16.7
2019-02-15T02:55:29.958Z,16.7
2019-02-15T02:56:20.207Z,16.8
2019-02-15T02:57:09.977Z,16.8
2019-02-15T02:58:00.519Z,16.8
2019-02-15T02:58:50.642Z,16.8
2019-02-15T02:59:40.947Z,16.8
2019-02-15T03:00:40.902Z,16.8
2019-02-15T03:01:23.617Z,16.8
2019-02-15T03:02:10.904Z,16.8
2019-02-15T03:03:00.632Z,16.8
2019-02-15T03:03:51.331Z,16.9
2019-02-15T03:04:41.067Z,16.9
2019-02-15T03:09:02.434Z,17.1
2019-02-15T03:09:53.715Z,17.1
2019-02-15T03:11:33.491Z,16.9
2019-02-15T03:12:24.066Z,16.8
2019-02-15T03:13:14.136Z,16.8
2019-02-15T03:14:15.643Z,16.8
2019-02-15T03:14:54.936Z,16.8
2019-02-15T03:15:44.311Z,16.9
2019-02-15T03:16:33.872Z,16.9
2019-02-15T03:17:23.701Z,16.9
2019-02-15T03:18:15.651Z,16.9
2019-02-15T03:19:04.619Z,16.9
2019-02-15T03:19:54.136Z,16.9
2019-02-15T03:20:45.543Z,16.9
2019-02-15T03:21:33.931Z,16.8
2019-02-15T03:22:24.831Z,16.8
2019-02-15T03:23:14.424Z,16.8
2019-02-15T03:24:05.727Z,16.8
2019-02-15T03:24:55.914Z,16.8
2019-02-15T03:25:45.368Z,16.8
2019-02-15T03:26:34.848Z,16.8
2019-02-15T03:27:25.334Z,16.8
2019-02-15T03:28:15.445Z,16.8
2019-02-15T03:29:04.863Z,16.8
2019-02-15T03:29:54.553Z,16.9
2019-02-15T03:30:45.967Z,16.8
2019-02-15T03:31:35.304Z,16.9
2019-02-15T03:32:25.697Z,16.9
2019-02-15T03:33:16.826Z,16.9
2019-02-15T03:36:36.213Z,17.1
2019-02-15T03:37:26.360Z,17.1
2019-02-15T03:38:16.875Z,17.1
2019-02-15T03:39:56.891Z,16.9
2019-02-15T03:40:46.659Z,16.8
2019-02-15T03:41:36.405Z,16.8
2019-02-15T03:42:26.566Z,16.8
2019-02-15T03:43:16.867Z,16.8
2019-02-15T03:44:06.783Z,16.8
2019-02-15T03:44:56.420Z,16.8
2019-02-15T03:45:47.350Z,16.8
2019-02-15T03:46:36.585Z,16.9
2019-02-15T03:47:27.104Z,16.8
2019-02-15T03:48:16.329Z,16.8
2019-02-15T03:49:06.998Z,16.8
2019-02-15T03:49:56.287Z,16.8
2019-02-15T03:50:47.319Z,16.8
2019-02-15T03:51:37.176Z,16.7
2019-02-15T03:52:27.197Z,16.7
2019-02-15T03:53:17.503Z,16.7
2019-02-15T03:54:06.229Z,16.6
2019-02-15T03:54:56.259Z,16.7
2019-02-15T03:55:46.956Z,16.8
2019-02-15T03:56:36.407Z,16.8
2019-02-15T03:57:26.796Z,16.8
2019-02-15T03:58:16.508Z,16.9
2019-02-15T03:59:06.444Z,16.9
2019-02-15T03:59:57.804Z,16.9
2019-02-15T04:00:48.007Z,16.9
2019-02-15T04:01:38.162Z,16.9
2019-02-15T04:02:26.801Z,16.9
2019-02-15T04:04:58.011Z,17.1
2019-02-15T04:05:48.093Z,17.1
2019-02-15T04:06:38.186Z,17.1
2019-02-15T04:07:28.633Z,17.2
2019-02-15T04:08:17.714Z,17.1
2019-02-15T04:09:08.648Z,17.1
2019-02-15T04:09:58.350Z,17.1
2019-02-15T04:10:48.360Z,17.1
2019-02-15T04:12:29.118Z,16.9
2019-02-15T04:13:17.595Z,16.8
2019-02-15T04:14:08.257Z,16.8
2019-02-15T04:14:57.677Z,16.8
2019-02-15T04:15:48.510Z,16.7
2019-02-15T04:16:38.927Z,16.7
2019-02-15T04:17:27.888Z,16.6
2019-02-15T04:18:17.856Z,16.6
2019-02-15T04:19:07.585Z,16.6
2019-02-15T04:19:58.451Z,16.6
2019-02-15T04:20:48.290Z,16.6
2019-02-15T04:21:37.868Z,16.6
2019-02-15T04:22:28.356Z,16.7
2019-02-15T04:23:18.409Z,16.8
2019-02-15T04:24:10.315Z,16.8
2019-02-15T04:24:58.216Z,16.8
2019-02-15T04:25:48.859Z,16.9
2019-02-15T04:26:39.239Z,16.9
2019-02-15T04:27:29.350Z,16.8
2019-02-15T04:28:19.978Z,16.8
2019-02-15T04:29:09.219Z,16.7
2019-02-15T04:29:58.932Z,16.6
2019-02-15T04:30:49.351Z,16.6
2019-02-15T04:31:39.862Z,16.6
2019-02-15T04:32:30.399Z,16.7
2019-02-15T04:33:19.744Z,16.8
2019-02-15T04:34:09.736Z,16.8
2019-02-15T04:34:58.916Z,16.8
2019-02-15T04:35:49.725Z,16.8
2019-02-15T04:36:39.109Z,16.8
2019-02-15T04:37:28.861Z,16.7
2019-02-15T04:38:20.332Z,16.7
2019-02-15T04:39:10.186Z,16.8
2019-02-15T04:39:59.551Z,16.7
2019-02-15T04:40:49.962Z,16.7
2019-02-15T04:41:40.126Z,16.7
2019-02-15T04:42:30.060Z,16.7
2019-02-15T04:43:19.829Z,16.7
2019-02-15T04:44:11.264Z,16.8
2019-02-15T04:44:59.412Z,16.8
2019-02-15T04:45:50.595Z,16.8
2019-02-15T04:46:40.936Z,16.8
2019-02-15T04:47:30.505Z,16.8
2019-02-15T04:48:21.011Z,16.9
2019-02-15T04:49:10.825Z,16.9
2019-02-15T04:50:00.820Z,16.9
2019-02-15T04:50:51.237Z,16.9
2019-02-15T04:51:41.540Z,16.9
2019-02-15T04:53:21.606Z,17.1
2019-02-15T04:54:11.073Z,17.1
2019-02-15T04:55:01.184Z,17.1
2019-02-15T04:56:41.364Z,16.9
2019-02-15T04:57:30.615Z,16.8
2019-02-15T04:58:21.155Z,16.8
2019-02-15T04:59:11.009Z,16.8
2019-02-15T05:00:01.725Z,16.9
2019-02-15T05:00:51.933Z,16.9
2019-02-15T05:01:41.874Z,16.9
2019-02-15T05:02:31.067Z,16.9
2019-02-15T05:03:25.479Z,16.8
2019-02-15T05:04:12.309Z,16.8
2019-02-15T05:05:01.292Z,16.8
2019-02-15T05:05:51.955Z,16.7
2019-02-15T05:06:41.574Z,16.6
2019-02-15T05:07:30.734Z,16.4
2019-02-15T05:08:22.124Z,16.4
2019-02-15T05:09:11.877Z,16.4
2019-02-15T05:10:02.195Z,16.4
2019-02-15T05:10:51.691Z,16.4
2019-02-15T05:11:42.385Z,16.4
2019-02-15T05:12:32.398Z,16.4
2019-02-15T05:13:22.524Z,16.4
2019-02-15T05:14:12.787Z,16.5
2019-02-15T05:15:03.175Z,16.5
2019-02-15T05:15:52.564Z,16.6
2019-02-15T05:16:42.730Z,16.6
2019-02-15T05:17:31.894Z,16.6
2019-02-15T05:18:22.796Z,16.7
2019-02-15T05:19:12.310Z,16.7
2019-02-15T05:20:03.588Z,16.7
2019-02-15T05:20:52.910Z,16.8
2019-02-15T05:21:43.552Z,16.8
2019-02-15T05:22:34.075Z,16.9
2019-02-15T05:23:22.935Z,17.4
2019-02-15T05:24:14.342Z,18.4
2019-02-15T05:25:03.779Z,18.9
2019-02-15T05:25:53.550Z,19.1
2019-02-15T05:26:42.775Z,19.4
2019-02-15T05:27:33.138Z,19.5
2019-02-15T05:28:23.707Z,19.8
2019-02-15T05:29:14.373Z,19.9
2019-02-15T05:30:04.203Z,20.2
2019-02-15T05:30:53.700Z,20.5
2019-02-15T05:31:43.668Z,20.8
2019-02-15T05:32:34.275Z,21.3
2019-02-15T05:33:22.765Z,21.7
2019-02-15T05:34:13.865Z,27.4
2019-02-15T05:35:04.658Z,32.8
2019-02-15T05:35:54.269Z,36.3
2019-02-15T05:36:44.574Z,39
2019-02-15T05:37:34.172Z,41.1
2019-02-15T05:38:24.777Z,42.4
2019-02-15T05:39:14.837Z,43
2019-02-15T05:40:03.674Z,42.7
2019-02-15T05:40:54.907Z,41.9
2019-02-15T05:41:44.987Z,40.9
2019-02-15T05:42:34.509Z,40.1
2019-02-15T05:43:24.230Z,39.3
2019-02-15T05:44:16.866Z,38.5
2019-02-15T05:45:13.880Z,37.8
2019-02-15T05:45:53.304Z,37
2019-02-15T05:46:45.832Z,36.5
2019-02-15T05:47:35.054Z,36.1
2019-02-15T05:48:24.009Z,35.9
2019-02-15T05:49:14.888Z,35.9
2019-02-15T05:50:05.239Z,36.6
2019-02-15T05:50:54.984Z,38.8
2019-02-15T05:51:48.057Z,40.3
2019-02-15T05:52:35.089Z,41.3
2019-02-15T05:53:25.721Z,41.9
2019-02-15T05:54:15.161Z,42.2
2019-02-15T05:55:04.792Z,42.1
2019-02-15T05:55:55.402Z,41.4
2019-02-15T05:56:45.684Z,40.3
2019-02-15T05:57:35.450Z,39.4
2019-02-15T05:58:25.233Z,38.6
2019-02-15T05:59:14.706Z,37.9
2019-02-15T06:00:05.910Z,37.2
2019-02-15T06:00:55.683Z,36.4
2019-02-15T06:01:44.761Z,35.8
2019-02-15T06:02:36.112Z,35.1
2019-02-15T06:03:26.110Z,34.8
2019-02-15T06:06:14.333Z,34.3
2019-02-15T06:07:03.992Z,34.3
2019-02-15T06:07:54.938Z,34.4
2019-02-15T06:08:43.630Z,34.4
2019-02-15T06:09:33.920Z,34.6
2019-02-15T06:10:24.546Z,34.7
2019-02-15T06:11:18.059Z,34.8
2019-02-15T06:12:04.065Z,34.9
2019-02-15T06:12:54.240Z,35.1
2019-02-15T06:13:43.330Z,35.2
2019-02-15T06:14:34.570Z,35.3
2019-02-15T06:15:24.718Z,35.4
2019-02-15T06:16:14.105Z,35.4
2019-02-15T06:17:07.260Z,35.4
2019-02-15T06:17:55.253Z,35.5
2019-02-15T06:18:45.431Z,35.5
2019-02-15T06:19:33.738Z,35.6
2019-02-15T06:20:24.885Z,35.5
2019-02-15T06:21:15.262Z,35.5
2019-02-15T06:22:04.957Z,35.5
2019-02-15T06:22:54.507Z,35.5
2019-02-15T06:23:45.089Z,35.4
2019-02-15T06:24:35.452Z,35.4
2019-02-15T06:25:24.710Z,35.4
2019-02-15T06:26:15.526Z,35.3
2019-02-15T06:27:05.467Z,35.3
2019-02-15T06:27:56.365Z,35.3
2019-02-15T06:28:45.535Z,35.2
2019-02-15T06:29:34.684Z,35.2
2019-02-15T06:30:25.971Z,35.1
2019-02-15T06:31:14.576Z,35.1
2019-02-15T06:32:06.198Z,35.1
2019-02-15T06:32:56.007Z,35.1
2019-02-15T06:33:44.947Z,35.1
2019-02-15T06:34:35.041Z,35.1
2019-02-15T06:35:24.799Z,35
2019-02-15T06:36:16.262Z,35
2019-02-15T06:37:06.343Z,34.9
2019-02-15T06:37:56.326Z,34.9
2019-02-15T06:38:45.271Z,34.9
2019-02-15T06:39:35.891Z,34.8
2019-02-15T06:40:25.677Z,34.8
2019-02-15T06:41:18.471Z,34.8
2019-02-15T06:42:06.422Z,34.8
2019-02-15T06:42:56.806Z,34.8
2019-02-15T06:43:46.546Z,34.9
2019-02-15T06:44:36.186Z,34.9
2019-02-15T06:45:34.288Z,35
2019-02-15T06:46:16.927Z,35.2
2019-02-15T06:47:06.394Z,35.3
2019-02-15T06:47:57.048Z,35.6
2019-02-15T06:48:47.214Z,36.1
2019-02-15T06:49:37.426Z,38.4
2019-02-15T06:50:26.451Z,40.8
2019-02-15T06:51:17.048Z,42.6
2019-02-15T06:52:06.895Z,44.1
2019-02-15T06:52:56.626Z,45
2019-02-15T06:53:47.209Z,45.5
2019-02-15T06:54:36.950Z,45.3
2019-02-15T06:55:26.682Z,44.4
2019-02-15T06:56:17.330Z,43.2
2019-02-15T06:57:07.353Z,41.7
2019-02-15T06:57:57.395Z,40.5
2019-02-15T06:58:54.948Z,39.5
2019-02-15T06:59:36.407Z,38.5
2019-02-15T07:00:26.750Z,37.8
2019-02-15T07:01:17.939Z,37.1
2019-02-15T07:02:07.954Z,36.5
2019-02-15T07:02:57.270Z,36.1
2019-02-15T07:03:50.130Z,35.9
2019-02-15T07:06:13.815Z,36.7
2019-02-15T07:07:18.684Z,39.6
2019-02-15T07:07:53.970Z,41.7
2019-02-15T07:08:44.104Z,42.5
2019-02-15T07:09:34.490Z,43.4
2019-02-15T07:10:38.141Z,43.9
2019-02-15T07:11:14.689Z,44
2019-02-15T07:12:04.691Z,43.6
2019-02-15T07:12:54.931Z,42.8
2019-02-15T07:13:43.982Z,41.9
2019-02-15T07:14:34.182Z,41
2019-02-15T07:15:38.865Z,40.2
2019-02-15T07:16:14.386Z,39.2
2019-02-15T07:17:04.758Z,38.7
2019-02-15T07:17:55.311Z,38
2019-02-15T07:18:59.738Z,37.4
2019-02-15T07:20:04.056Z,36.9
2019-02-15T07:20:24.111Z,37.2
2019-02-15T07:21:15.431Z,38.1
2019-02-15T07:22:19.961Z,40.1
2019-02-15T07:23:09.403Z,41.8
2019-02-15T07:24:00.713Z,42.7
2019-02-15T07:24:34.325Z,43.3
2019-02-15T07:25:24.483Z,43.5
2019-02-15T07:26:30.706Z,43.5
2019-02-15T07:27:04.489Z,42.9
2019-02-15T07:27:55.851Z,42.4
2019-02-15T07:28:47.756Z,41.6
2019-02-15T07:29:36.091Z,40.8
2019-02-15T07:30:25.445Z,40.1
2019-02-15T07:31:29.848Z,39.4
2019-02-15T07:32:03.955Z,38.6
2019-02-15T07:33:10.200Z,38.2
2019-02-15T07:33:46.319Z,37.4
2019-02-15T07:34:49.599Z,37.4
2019-02-15T07:35:40.010Z,39
2019-02-15T07:36:17.249Z,40.4
2019-02-15T07:37:37.528Z,41.2
2019-02-15T07:37:56.121Z,42.3
2019-02-15T07:39:00.080Z,42.4
2019-02-15T07:39:51.890Z,42.6
2019-02-15T07:40:40.540Z,42.4
2019-02-15T07:41:31.150Z,41.9
2019-02-15T07:42:21.685Z,41.3
2019-02-15T07:43:11.715Z,40.6
2019-02-15T07:43:45.769Z,39.8
2019-02-15T07:44:36.758Z,39.6
2019-02-15T07:46:30.727Z,38.2
2019-02-15T07:47:06.973Z,37.8
2019-02-15T07:47:59.130Z,38
2019-02-15T07:48:46.157Z,39.8
2019-02-15T07:49:37.399Z,40.8
2019-02-15T07:50:27.699Z,41.5
2019-02-15T07:51:18.806Z,41.9
2019-02-15T07:52:50.959Z,42.1
2019-02-15T07:53:01.539Z,41.8
2019-02-15T07:53:52.189Z,41.7
2019-02-15T07:54:41.276Z,41.2
2019-02-15T07:55:31.646Z,40.8
2019-02-15T07:56:21.244Z,40.2
2019-02-15T07:57:11.801Z,39.6
2019-02-15T07:58:01.824Z,39.1
2019-02-15T07:58:51.356Z,40.4
2019-02-15T07:59:41.301Z,41.4
2019-02-15T08:00:31.534Z,41.9
2019-02-15T08:01:21.364Z,42.4
2019-02-15T08:02:12.367Z,42.4
2019-02-15T08:03:01.656Z,42.4
2019-02-15T08:03:52.499Z,42
2019-02-15T08:04:41.948Z,41.6
2019-02-15T08:05:32.583Z,41.1
2019-02-15T08:06:22.444Z,40.6
2019-02-15T08:07:11.910Z,39.9
2019-02-15T08:08:01.509Z,39.4
2019-02-15T08:08:52.475Z,39.2
2019-02-15T08:09:42.403Z,40.6
2019-02-15T08:10:31.896Z,41.3
2019-02-15T08:11:21.323Z,41.8
2019-02-15T08:12:12.525Z,41.9
2019-02-15T08:13:02.000Z,42.1
2019-02-15T08:13:51.550Z,41.9
2019-02-15T08:14:43.045Z,41.7
2019-02-15T08:15:41.990Z,41.3
2019-02-15T08:16:23.077Z,40.7
2019-02-15T08:17:12.415Z,40.4
2019-02-15T08:18:02.413Z,41.4
2019-02-15T08:18:52.770Z,41.9
2019-02-15T08:19:43.847Z,42.1
2019-02-15T08:20:32.494Z,42.1
2019-02-15T08:21:23.150Z,41.9
2019-02-15T08:22:12.638Z,41.7
2019-02-15T08:23:03.270Z,41.3
2019-02-15T08:23:53.633Z,40.8
2019-02-15T08:24:42.784Z,40.3
2019-02-15T08:25:33.717Z,40.9
2019-02-15T08:26:23.279Z,41.6
2019-02-15T08:27:13.839Z,42
2019-02-15T08:28:02.472Z,42.2
2019-02-15T08:28:54.032Z,42.2
2019-02-15T08:29:42.884Z,42
2019-02-15T08:30:34.047Z,41.7
2019-02-15T08:31:23.589Z,41.3
2019-02-15T08:32:15.150Z,40.8
2019-02-15T08:33:03.631Z,40.4
2019-02-15T08:33:53.999Z,41.5
2019-02-15T08:34:45.401Z,42.1
2019-02-15T08:35:33.449Z,42.4
2019-02-15T08:36:24.461Z,42.6
2019-02-15T08:37:16.013Z,42.6
2019-02-15T08:38:04.336Z,42.4
2019-02-15T08:38:55.260Z,42.1
2019-02-15T08:39:44.664Z,41.6
2019-02-15T08:40:37.369Z,41.1
2019-02-15T08:41:25.048Z,40.6
2019-02-15T08:42:14.362Z,40.1
2019-02-15T08:43:04.586Z,41.1
2019-02-15T08:43:54.741Z,41.7
2019-02-15T08:44:44.635Z,41.9
2019-02-15T08:45:34.907Z,42.1
2019-02-15T08:46:24.493Z,42
2019-02-15T08:47:14.841Z,41.8
2019-02-15T08:48:05.889Z,41.4
2019-02-15T08:48:55.995Z,40.9
2019-02-15T08:49:45.781Z,40.8
2019-02-15T08:50:34.808Z,41.8
2019-02-15T08:51:24.918Z,42.2
2019-02-15T08:52:16.236Z,42.3
2019-02-15T08:53:04.776Z,42.3
2019-02-15T08:53:57.415Z,42.1
2019-02-15T08:54:45.217Z,41.8
2019-02-15T08:55:34.243Z,41.4
2019-02-15T08:56:25.750Z,40.9
2019-02-15T08:57:15.085Z,40.4
2019-02-15T08:58:04.931Z,40
2019-02-15T08:58:55.748Z,41.2
2019-02-15T08:59:46.035Z,41.8
2019-02-15T09:00:35.573Z,42.2
2019-02-15T09:01:25.282Z,42.3
2019-02-15T09:02:15.622Z,42.4
2019-02-15T09:03:20.587Z,42.3
2019-02-15T09:03:55.567Z,41.8
2019-02-15T09:04:46.660Z,41.6
2019-02-15T09:05:35.640Z,41.1
2019-02-15T09:06:25.900Z,40.6
2019-02-15T09:07:16.784Z,40.1
2019-02-15T09:08:05.194Z,41.1
2019-02-15T09:08:56.132Z,41.8
2019-02-15T09:09:46.727Z,42.1
2019-02-15T09:10:36.145Z,42.3
2019-02-15T09:11:26.614Z,42.3
2019-02-15T09:12:17.485Z,42.1
2019-02-15T09:13:06.644Z,41.8
2019-02-15T09:13:55.941Z,41.4
2019-02-15T09:14:45.979Z,40.9
2019-02-15T09:15:36.003Z,41.3
2019-02-15T09:16:26.539Z,42
2019-02-15T09:17:16.099Z,42.3
2019-02-15T09:18:05.642Z,42.4
2019-02-15T09:18:57.492Z,42.3
2019-02-15T09:19:47.267Z,42.2
2019-02-15T09:20:37.359Z,41.9
2019-02-15T09:21:27.446Z,41.5
2019-02-15T09:22:17.723Z,41.1
2019-02-15T09:23:07.786Z,41.4
2019-02-15T09:23:58.878Z,42.1
2019-02-15T09:24:46.911Z,42.4
2019-02-15T09:25:38.011Z,42.6
2019-02-15T09:26:27.771Z,42.5
2019-02-15T09:27:17.859Z,42.3
2019-02-15T09:28:07.391Z,42.1
2019-02-15T09:28:57.713Z,41.7
2019-02-15T09:29:47.721Z,41.2
2019-02-15T09:30:37.781Z,40.7
2019-02-15T09:31:27.629Z,41.4
2019-02-15T09:32:17.915Z,42.1
2019-02-15T09:33:07.975Z,42.4
2019-02-15T09:33:57.638Z,42.6
2019-02-15T09:34:48.581Z,42.7
2019-02-15T09:35:38.460Z,42.6
2019-02-15T09:36:28.991Z,42.4
2019-02-15T09:37:18.507Z,42.1
2019-02-15T09:38:09.490Z,41.6
2019-02-15T09:38:59.129Z,41.1
2019-02-15T09:39:48.695Z,41.6
2019-02-15T09:40:38.630Z,42.2
2019-02-15T09:41:28.764Z,42.6
2019-02-15T09:42:19.066Z,42.7
2019-02-15T09:43:08.918Z,42.7
2019-02-15T09:43:58.927Z,42.6
2019-02-15T09:44:49.715Z,42.3
2019-02-15T09:45:41.880Z,41.9
2019-02-15T09:46:29.277Z,41.4
2019-02-15T09:47:20.067Z,41
2019-02-15T09:48:08.997Z,41.9
2019-02-15T09:48:59.401Z,42.3
2019-02-15T09:49:53.380Z,42.4
2019-02-15T09:50:40.244Z,42.5
2019-02-15T09:51:28.961Z,42.4
2019-02-15T09:52:19.513Z,42.3
2019-02-15T09:53:09.277Z,41.9
2019-02-15T09:54:00.528Z,41.4
2019-02-15T09:54:50.292Z,42.1
2019-02-15T09:55:40.129Z,42.6
2019-02-15T09:56:30.694Z,42.8
2019-02-15T09:57:20.674Z,42.8
2019-02-15T09:58:09.754Z,42.8
2019-02-15T09:58:59.755Z,42.6
2019-02-15T09:59:50.581Z,42.3
2019-02-15T10:00:40.079Z,41.9
2019-02-15T10:01:30.409Z,41.4
2019-02-15T10:02:19.126Z,40.9
2019-02-15T10:03:09.711Z,41.7
2019-02-15T10:04:02.925Z,42
2019-02-15T10:04:50.160Z,41.9
2019-02-15T10:07:14.159Z,41.1
2019-02-15T10:08:03.408Z,40.5
2019-02-15T10:08:52.968Z,40
2019-02-15T10:09:45.631Z,39.4
2019-02-15T10:10:34.198Z,38.9
2019-02-15T10:11:23.862Z,38.3
2019-02-15T10:12:13.985Z,37.9
2019-02-15T10:13:04.063Z,37.5
2019-02-15T10:13:53.710Z,37.3
2019-02-15T10:14:43.260Z,37.1
2019-02-15T10:15:34.720Z,37.1
2019-02-15T10:16:35.848Z,37.2
2019-02-15T10:17:13.275Z,37.3
2019-02-15T10:18:03.287Z,37.4
2019-02-15T10:18:55.120Z,37.6
2019-02-15T10:19:44.785Z,37.7
2019-02-15T10:20:32.943Z,37.8
2019-02-15T10:21:24.856Z,37.9
2019-02-15T10:22:16.791Z,38.1
2019-02-15T10:23:04.415Z,38.2
2019-02-15T10:23:54.495Z,38.3
2019-02-15T10:24:45.182Z,38.3
2019-02-15T10:25:35.419Z,38.4
2019-02-15T10:26:24.900Z,38.4
2019-02-15T10:27:14.340Z,38.4
2019-02-15T10:28:05.138Z,38.5
2019-02-15T10:28:54.957Z,38.5
2019-02-15T10:29:44.569Z,38.5
2019-02-15T10:30:35.250Z,38.6
2019-02-15T10:31:25.014Z,38.6
2019-02-15T10:32:16.157Z,38.6
2019-02-15T10:33:05.417Z,38.6
2019-02-15T10:33:55.479Z,38.6
2019-02-15T10:34:45.584Z,38.6
2019-02-15T10:35:35.564Z,38.6
2019-02-15T10:36:27.655Z,38.6
2019-02-15T10:37:14.834Z,38.5
2019-02-15T10:38:04.765Z,38.5
2019-02-15T10:38:56.174Z,38.5
2019-02-15T10:39:45.851Z,38.5
2019-02-15T10:40:35.404Z,38.4
2019-02-15T10:41:25.731Z,38.4
2019-02-15T10:42:30.681Z,38.4
2019-02-15T10:43:05.009Z,38.4
2019-02-15T10:43:56.411Z,38.4
2019-02-15T10:44:46.146Z,38.4
2019-02-15T10:45:35.238Z,38.4
2019-02-15T10:46:25.786Z,38.4
2019-02-15T10:47:33.433Z,38.4
2019-02-15T10:48:06.246Z,38.3
2019-02-15T10:48:56.515Z,38.3
2019-02-15T10:49:46.540Z,38.2
2019-02-15T10:50:36.330Z,38.1
2019-02-15T10:51:26.993Z,38.1
2019-02-15T10:52:16.161Z,38.1
2019-02-15T10:53:06.634Z,38.1
2019-02-15T10:53:57.196Z,38
2019-02-15T10:54:46.665Z,37.9
2019-02-15T10:55:38.053Z,37.9
2019-02-15T10:56:26.860Z,37.9
2019-02-15T10:57:17.683Z,37.9
2019-02-15T10:58:07.335Z,37.8
2019-02-15T10:58:56.910Z,37.8
2019-02-15T10:59:47.081Z,37.8
2019-02-15T11:00:36.236Z,37.7
2019-02-15T11:01:26.670Z,37.7
2019-02-15T11:02:16.218Z,37.6
2019-02-15T11:03:06.982Z,37.6
2019-02-15T11:03:56.053Z,37.6
2019-02-15T11:04:48.290Z,37.5
2019-02-15T11:05:37.898Z,37.5
2019-02-15T11:06:27.380Z,37.4
2019-02-15T11:07:17.180Z,37.4
2019-02-15T11:08:08.141Z,37.4
2019-02-15T11:08:57.879Z,37.3
2019-02-15T11:09:47.619Z,37.3
2019-02-15T11:10:40.179Z,37.3
2019-02-15T11:11:27.762Z,37.2
2019-02-15T11:12:18.124Z,37.2
2019-02-15T11:13:08.170Z,37.1
2019-02-15T11:13:57.126Z,37.1
2019-02-15T11:14:48.792Z,37.1
2019-02-15T11:15:38.563Z,37
2019-02-15T11:16:27.861Z,36.9
2019-02-15T11:17:18.014Z,36.9
2019-02-15T11:18:08.564Z,36.8
2019-02-15T11:18:59.104Z,36.8
2019-02-15T11:19:48.592Z,36.8
2019-02-15T11:20:38.127Z,36.7
2019-02-15T11:21:28.766Z,36.7
2019-02-15T11:22:18.767Z,36.7
2019-02-15T11:23:08.597Z,36.6
2019-02-15T11:23:58.907Z,36.6
2019-02-15T11:24:48.360Z,36.6
2019-02-15T11:25:39.266Z,36.5
2019-02-15T11:26:33.991Z,36.5
2019-02-15T11:27:19.406Z,36.4
2019-02-15T11:28:09.697Z,36.5
2019-02-15T11:28:58.928Z,36.6
2019-02-15T11:29:50.021Z,36.6
2019-02-15T11:30:39.648Z,36.7
2019-02-15T11:31:29.756Z,36.9
2019-02-15T11:32:19.550Z,37.1
2019-02-15T11:33:09.281Z,38.2
2019-02-15T11:33:59.883Z,40.8